sensor_id;sensor_type;location;lat;lon;timestamp;P1;durP1;ratioP1;P2;durP2;ratioP2
23230;SDS011;11784;49.818;8.632;2022-11-09T00:02:07;0.60;;;0.60;;
23230;SDS011;11784;49.818;8.632;2022-11-09T00:04:32;1.08;;;0.40;;
23230;SDS011;11784;49.818;8.632;2022-11-09T00:06:58;1.75;;;0.65;;
23230;SDS011;11784;49.818;8.632;2022-11-09T00:09:25;0.57;;;0.57;;
23230;SDS011;11784;49.818;8.632;2022-11-09T00:11:51;1.05;;;0.75;;
23230;SDS011;11784;49.818;8.632;2022-11-09T00:14:17;0.82;;;0.50;;
23230;SDS011;11784;49.818;8.632;2022-11-09T00:16:43;0.93;;;0.57;;
23230;SDS011;11784;49.818;8.632;2022-11-09T00:19:09;1.55;;;0.90;;
23230;SDS011;11784;49.818;8.632;2022-11-09T00:21:37;0.90;;;0.50;;
23230;SDS011;11784;49.818;8.632;2022-11-09T00:24:02;0.85;;;0.73;;
23230;SDS011;11784;49.818;8.632;2022-11-09T00:26:28;2.00;;;0.80;;
23230;SDS011;11784;49.818;8.632;2022-11-09T00:28:54;1.48;;;0.60;;
23230;SDS011;11784;49.818;8.632;2022-11-09T00:31:20;1.30;;;0.65;;
23230;SDS011;11784;49.818;8.632;2022-11-09T00:33:51;1.38;;;0.77;;
23230;SDS011;11784;49.818;8.632;2022-11-09T00:36:18;2.70;;;1.00;;
23230;SDS011;11784;49.818;8.632;2022-11-09T00:38:48;1.65;;;0.77;;
23230;SDS011;11784;49.818;8.632;2022-11-09T00:41:15;1.38;;;0.68;;
23230;SDS011;11784;49.818;8.632;2022-11-09T00:43:41;0.93;;;0.80;;
23230;SDS011;11784;49.818;8.632;2022-11-09T00:46:07;2.00;;;1.05;;
23230;SDS011;11784;49.818;8.632;2022-11-09T00:48:32;2.17;;;1.02;;
23230;SDS011;11784;49.818;8.632;2022-11-09T00:50:58;2.42;;;0.95;;
23230;SDS011;11784;49.818;8.632;2022-11-09T00:53:24;2.03;;;0.90;;
23230;SDS011;11784;49.818;8.632;2022-11-09T00:58:24;3.15;;;1.20;;
23230;SDS011;11784;49.818;8.632;2022-11-09T01:00:51;2.90;;;1.20;;
23230;SDS011;11784;49.818;8.632;2022-11-09T01:03:17;1.30;;;1.00;;
23230;SDS011;11784;49.818;8.632;2022-11-09T01:05:43;2.65;;;0.93;;
23230;SDS011;11784;49.818;8.632;2022-11-09T01:08:09;2.28;;;1.08;;
23230;SDS011;11784;49.818;8.632;2022-11-09T01:10:34;1.63;;;0.75;;
23230;SDS011;11784;49.818;8.632;2022-11-09T01:13:03;1.50;;;0.90;;
23230;SDS011;11784;49.818;8.632;2022-11-09T01:15:28;4.93;;;1.25;;
23230;SDS011;11784;49.818;8.632;2022-11-09T01:17:54;2.20;;;0.98;;
23230;SDS011;11784;49.818;8.632;2022-11-09T01:20:19;1.17;;;0.70;;
23230;SDS011;11784;49.818;8.632;2022-11-09T01:22:45;1.50;;;0.55;;
23230;SDS011;11784;49.818;8.632;2022-11-09T01:25:11;2.75;;;0.90;;
23230;SDS011;11784;49.818;8.632;2022-11-09T01:27:36;1.15;;;0.73;;
23230;SDS011;11784;49.818;8.632;2022-11-09T01:30:02;0.68;;;0.32;;
23230;SDS011;11784;49.818;8.632;2022-11-09T01:32:30;1.00;;;0.70;;
23230;SDS011;11784;49.818;8.632;2022-11-09T01:34:56;1.55;;;0.60;;
23230;SDS011;11784;49.818;8.632;2022-11-09T01:37:21;1.30;;;0.70;;
23230;SDS011;11784;49.818;8.632;2022-11-09T01:39:47;0.93;;;0.73;;
23230;SDS011;11784;49.818;8.632;2022-11-09T01:42:13;0.63;;;0.50;;
23230;SDS011;11784;49.818;8.632;2022-11-09T01:44:39;0.93;;;0.50;;
23230;SDS011;11784;49.818;8.632;2022-11-09T01:47:19;1.05;;;0.70;;
23230;SDS011;11784;49.818;8.632;2022-11-09T01:49:51;1.27;;;0.75;;
23230;SDS011;11784;49.818;8.632;2022-11-09T01:52:31;2.25;;;0.85;;
23230;SDS011;11784;49.818;8.632;2022-11-09T01:57:31;1.52;;;0.75;;
23230;SDS011;11784;49.818;8.632;2022-11-09T02:00:03;2.17;;;0.80;;
23230;SDS011;11784;49.818;8.632;2022-11-09T02:02:34;1.30;;;0.43;;
23230;SDS011;11784;49.818;8.632;2022-11-09T02:05:02;2.05;;;0.45;;
23230;SDS011;11784;49.818;8.632;2022-11-09T02:07:32;0.80;;;0.47;;
23230;SDS011;11784;49.818;8.632;2022-11-09T02:12:40;0.80;;;0.50;;
23230;SDS011;11784;49.818;8.632;2022-11-09T02:15:07;0.40;;;0.35;;
23230;SDS011;11784;49.818;8.632;2022-11-09T02:17:34;0.98;;;0.50;;
23230;SDS011;11784;49.818;8.632;2022-11-09T02:20:00;0.63;;;0.50;;
23230;SDS011;11784;49.818;8.632;2022-11-09T02:22:30;1.85;;;0.57;;
23230;SDS011;11784;49.818;8.632;2022-11-09T02:24:56;1.33;;;0.55;;
23230;SDS011;11784;49.818;8.632;2022-11-09T02:27:21;5.00;;;1.73;;
23230;SDS011;11784;49.818;8.632;2022-11-09T02:29:48;2.28;;;0.40;;
23230;SDS011;11784;49.818;8.632;2022-11-09T02:32:20;0.98;;;0.38;;
23230;SDS011;11784;49.818;8.632;2022-11-09T02:34:50;0.93;;;0.47;;
23230;SDS011;11784;49.818;8.632;2022-11-09T02:40:03;0.40;;;0.30;;
23230;SDS011;11784;49.818;8.632;2022-11-09T02:44:59;0.50;;;0.30;;
23230;SDS011;11784;49.818;8.632;2022-11-09T02:47:24;0.43;;;0.40;;
23230;SDS011;11784;49.818;8.632;2022-11-09T02:49:50;0.30;;;0.30;;
23230;SDS011;11784;49.818;8.632;2022-11-09T02:52:16;0.30;;;0.30;;
23230;SDS011;11784;49.818;8.632;2022-11-09T02:54:42;0.20;;;0.20;;
23230;SDS011;11784;49.818;8.632;2022-11-09T02:57:07;0.38;;;0.38;;
23230;SDS011;11784;49.818;8.632;2022-11-09T02:59:33;0.30;;;0.30;;
23230;SDS011;11784;49.818;8.632;2022-11-09T03:01:58;0.50;;;0.30;;
23230;SDS011;11784;49.818;8.632;2022-11-09T03:04:24;1.13;;;0.45;;
23230;SDS011;11784;49.818;8.632;2022-11-09T03:06:50;0.32;;;0.22;;
23230;SDS011;11784;49.818;8.632;2022-11-09T03:09:15;0.30;;;0.30;;
23230;SDS011;11784;49.818;8.632;2022-11-09T03:11:41;1.65;;;0.40;;
23230;SDS011;11784;49.818;8.632;2022-11-09T03:14:07;1.88;;;0.20;;
23230;SDS011;11784;49.818;8.632;2022-11-09T03:16:36;0.55;;;0.55;;
23230;SDS011;11784;49.818;8.632;2022-11-09T03:19:02;0.32;;;0.30;;
23230;SDS011;11784;49.818;8.632;2022-11-09T03:21:28;0.70;;;0.30;;
23230;SDS011;11784;49.818;8.632;2022-11-09T03:23:54;0.30;;;0.30;;
23230;SDS011;11784;49.818;8.632;2022-11-09T03:26:19;1.17;;;0.43;;
23230;SDS011;11784;49.818;8.632;2022-11-09T03:28:45;0.40;;;0.40;;
23230;SDS011;11784;49.818;8.632;2022-11-09T03:31:11;0.40;;;0.30;;
23230;SDS011;11784;49.818;8.632;2022-11-09T03:33:37;0.20;;;0.20;;
23230;SDS011;11784;49.818;8.632;2022-11-09T03:36:03;0.70;;;0.40;;
23230;SDS011;11784;49.818;8.632;2022-11-09T03:38:29;0.30;;;0.22;;
23230;SDS011;11784;49.818;8.632;2022-11-09T03:40:54;0.38;;;0.30;;
23230;SDS011;11784;49.818;8.632;2022-11-09T03:43:20;1.02;;;0.40;;
23230;SDS011;11784;49.818;8.632;2022-11-09T03:45:46;0.30;;;0.30;;
23230;SDS011;11784;49.818;8.632;2022-11-09T03:48:12;0.57;;;0.40;;
23230;SDS011;11784;49.818;8.632;2022-11-09T03:50:37;1.02;;;0.90;;
23230;SDS011;11784;49.818;8.632;2022-11-09T03:53:08;0.38;;;0.32;;
23230;SDS011;11784;49.818;8.632;2022-11-09T03:55:35;0.35;;;0.35;;
23230;SDS011;11784;49.818;8.632;2022-11-09T03:58:01;0.20;;;0.20;;
23230;SDS011;11784;49.818;8.632;2022-11-09T04:00:27;1.95;;;0.50;;
23230;SDS011;11784;49.818;8.632;2022-11-09T04:02:53;0.32;;;0.30;;
23230;SDS011;11784;49.818;8.632;2022-11-09T04:05:18;0.65;;;0.50;;
23230;SDS011;11784;49.818;8.632;2022-11-09T04:07:47;0.20;;;0.20;;
23230;SDS011;11784;49.818;8.632;2022-11-09T04:10:18;0.40;;;0.30;;
23230;SDS011;11784;49.818;8.632;2022-11-09T04:12:44;0.35;;;0.30;;
23230;SDS011;11784;49.818;8.632;2022-11-09T04:15:11;0.70;;;0.30;;
23230;SDS011;11784;49.818;8.632;2022-11-09T04:17:37;2.60;;;0.50;;
23230;SDS011;11784;49.818;8.632;2022-11-09T04:20:03;0.50;;;0.50;;
23230;SDS011;11784;49.818;8.632;2022-11-09T04:22:30;0.60;;;0.35;;
23230;SDS011;11784;49.818;8.632;2022-11-09T04:24:55;1.20;;;0.50;;
23230;SDS011;11784;49.818;8.632;2022-11-09T04:27:21;1.38;;;0.45;;
23230;SDS011;11784;49.818;8.632;2022-11-09T04:29:46;0.90;;;0.60;;
23230;SDS011;11784;49.818;8.632;2022-11-09T04:32:12;0.75;;;0.52;;
23230;SDS011;11784;49.818;8.632;2022-11-09T04:34:37;1.02;;;0.60;;
23230;SDS011;11784;49.818;8.632;2022-11-09T04:37:05;0.77;;;0.77;;
23230;SDS011;11784;49.818;8.632;2022-11-09T04:39:31;1.27;;;0.73;;
23230;SDS011;11784;49.818;8.632;2022-11-09T04:41:56;1.90;;;0.77;;
23230;SDS011;11784;49.818;8.632;2022-11-09T04:44:22;1.17;;;0.50;;
23230;SDS011;11784;49.818;8.632;2022-11-09T04:46:47;1.38;;;0.57;;
23230;SDS011;11784;49.818;8.632;2022-11-09T04:49:13;1.05;;;0.57;;
23230;SDS011;11784;49.818;8.632;2022-11-09T04:51:38;1.98;;;0.73;;
23230;SDS011;11784;49.818;8.632;2022-11-09T04:54:04;3.63;;;0.90;;
23230;SDS011;11784;49.818;8.632;2022-11-09T04:56:29;4.05;;;0.93;;
23230;SDS011;11784;49.818;8.632;2022-11-09T04:58:55;3.35;;;1.17;;
23230;SDS011;11784;49.818;8.632;2022-11-09T05:01:20;0.75;;;0.52;;
23230;SDS011;11784;49.818;8.632;2022-11-09T05:03:47;1.10;;;0.77;;
23230;SDS011;11784;49.818;8.632;2022-11-09T05:06:13;2.03;;;1.00;;
23230;SDS011;11784;49.818;8.632;2022-11-09T05:08:57;0.75;;;0.60;;
23230;SDS011;11784;49.818;8.632;2022-11-09T05:11:31;1.45;;;0.70;;
23230;SDS011;11784;49.818;8.632;2022-11-09T05:13:57;1.80;;;0.60;;
23230;SDS011;11784;49.818;8.632;2022-11-09T05:16:23;1.75;;;0.70;;
23230;SDS011;11784;49.818;8.632;2022-11-09T05:18:49;1.10;;;0.75;;
23230;SDS011;11784;49.818;8.632;2022-11-09T05:21:15;1.40;;;0.63;;
23230;SDS011;11784;49.818;8.632;2022-11-09T05:23:41;5.78;;;0.98;;
23230;SDS011;11784;49.818;8.632;2022-11-09T05:26:23;8.05;;;0.90;;
23230;SDS011;11784;49.818;8.632;2022-11-09T05:28:49;1.30;;;0.95;;
23230;SDS011;11784;49.818;8.632;2022-11-09T05:31:16;1.13;;;0.77;;
23230;SDS011;11784;49.818;8.632;2022-11-09T05:33:42;1.08;;;0.93;;
23230;SDS011;11784;49.818;8.632;2022-11-09T05:36:08;2.60;;;1.38;;
23230;SDS011;11784;49.818;8.632;2022-11-09T05:38:33;2.33;;;1.10;;
23230;SDS011;11784;49.818;8.632;2022-11-09T05:40:59;1.77;;;1.08;;
23230;SDS011;11784;49.818;8.632;2022-11-09T05:43:24;3.05;;;1.38;;
23230;SDS011;11784;49.818;8.632;2022-11-09T05:45:50;1.98;;;1.38;;
23230;SDS011;11784;49.818;8.632;2022-11-09T05:48:16;2.38;;;1.20;;
23230;SDS011;11784;49.818;8.632;2022-11-09T05:50:42;1.85;;;1.08;;
23230;SDS011;11784;49.818;8.632;2022-11-09T05:53:08;2.05;;;1.27;;
23230;SDS011;11784;49.818;8.632;2022-11-09T05:55:35;1.70;;;1.17;;
23230;SDS011;11784;49.818;8.632;2022-11-09T05:58:01;1.50;;;1.23;;
23230;SDS011;11784;49.818;8.632;2022-11-09T06:00:26;1.65;;;1.10;;
23230;SDS011;11784;49.818;8.632;2022-11-09T06:02:52;1.45;;;1.00;;
23230;SDS011;11784;49.818;8.632;2022-11-09T06:05:18;0.98;;;0.80;;
23230;SDS011;11784;49.818;8.632;2022-11-09T06:07:46;1.60;;;0.90;;
23230;SDS011;11784;49.818;8.632;2022-11-09T06:10:12;1.55;;;0.70;;
23230;SDS011;11784;49.818;8.632;2022-11-09T06:12:37;1.23;;;0.60;;
23230;SDS011;11784;49.818;8.632;2022-11-09T06:15:03;6.32;;;0.88;;
23230;SDS011;11784;49.818;8.632;2022-11-09T06:17:30;0.60;;;0.57;;
23230;SDS011;11784;49.818;8.632;2022-11-09T06:19:55;2.22;;;0.70;;
23230;SDS011;11784;49.818;8.632;2022-11-09T06:22:21;2.40;;;0.98;;
23230;SDS011;11784;49.818;8.632;2022-11-09T06:24:46;2.10;;;1.08;;
23230;SDS011;11784;49.818;8.632;2022-11-09T06:27:12;1.27;;;0.85;;
23230;SDS011;11784;49.818;8.632;2022-11-09T06:29:38;2.47;;;1.00;;
23230;SDS011;11784;49.818;8.632;2022-11-09T06:32:04;1.27;;;0.70;;
23230;SDS011;11784;49.818;8.632;2022-11-09T06:34:30;1.92;;;0.95;;
23230;SDS011;11784;49.818;8.632;2022-11-09T06:36:55;1.25;;;0.80;;
23230;SDS011;11784;49.818;8.632;2022-11-09T06:39:21;1.48;;;1.00;;
23230;SDS011;11784;49.818;8.632;2022-11-09T06:41:47;1.70;;;0.85;;
23230;SDS011;11784;49.818;8.632;2022-11-09T06:44:12;1.38;;;0.77;;
23230;SDS011;11784;49.818;8.632;2022-11-09T06:46:38;1.42;;;0.80;;
23230;SDS011;11784;49.818;8.632;2022-11-09T06:49:04;1.33;;;0.82;;
23230;SDS011;11784;49.818;8.632;2022-11-09T06:51:29;1.55;;;0.60;;
23230;SDS011;11784;49.818;8.632;2022-11-09T06:53:55;1.08;;;0.70;;
23230;SDS011;11784;49.818;8.632;2022-11-09T06:56:20;1.60;;;0.70;;
23230;SDS011;11784;49.818;8.632;2022-11-09T06:58:46;1.08;;;0.45;;
23230;SDS011;11784;49.818;8.632;2022-11-09T07:01:12;0.85;;;0.63;;
23230;SDS011;11784;49.818;8.632;2022-11-09T07:03:41;0.65;;;0.40;;
23230;SDS011;11784;49.818;8.632;2022-11-09T07:06:08;1.65;;;0.65;;
23230;SDS011;11784;49.818;8.632;2022-11-09T07:08:34;0.32;;;0.32;;
23230;SDS011;11784;49.818;8.632;2022-11-09T07:11:04;0.75;;;0.40;;
23230;SDS011;11784;49.818;8.632;2022-11-09T07:13:31;0.55;;;0.40;;
23230;SDS011;11784;49.818;8.632;2022-11-09T07:15:57;0.90;;;0.30;;
23230;SDS011;11784;49.818;8.632;2022-11-09T07:18:22;0.43;;;0.40;;
23230;SDS011;11784;49.818;8.632;2022-11-09T07:20:48;0.60;;;0.40;;
23230;SDS011;11784;49.818;8.632;2022-11-09T07:23:14;0.40;;;0.40;;
23230;SDS011;11784;49.818;8.632;2022-11-09T07:25:39;0.70;;;0.30;;
23230;SDS011;11784;49.818;8.632;2022-11-09T07:28:05;0.30;;;0.30;;
23230;SDS011;11784;49.818;8.632;2022-11-09T07:30:32;1.13;;;0.68;;
23230;SDS011;11784;49.818;8.632;2022-11-09T07:32:59;0.60;;;0.40;;
23230;SDS011;11784;49.818;8.632;2022-11-09T07:35:25;1.00;;;0.43;;
23230;SDS011;11784;49.818;8.632;2022-11-09T07:37:51;0.30;;;0.30;;
23230;SDS011;11784;49.818;8.632;2022-11-09T07:40:17;1.02;;;0.50;;
23230;SDS011;11784;49.818;8.632;2022-11-09T07:42:43;1.70;;;0.50;;
23230;SDS011;11784;49.818;8.632;2022-11-09T07:45:09;0.25;;;0.22;;
23230;SDS011;11784;49.818;8.632;2022-11-09T07:47:35;0.20;;;0.20;;
23230;SDS011;11784;49.818;8.632;2022-11-09T07:50:00;0.50;;;0.40;;
23230;SDS011;11784;49.818;8.632;2022-11-09T07:52:26;0.20;;;0.20;;
23230;SDS011;11784;49.818;8.632;2022-11-09T07:54:52;2.08;;;0.30;;
23230;SDS011;11784;49.818;8.632;2022-11-09T07:57:17;0.22;;;0.20;;
23230;SDS011;11784;49.818;8.632;2022-11-09T07:59:43;0.65;;;0.20;;
23230;SDS011;11784;49.818;8.632;2022-11-09T08:02:08;0.63;;;0.47;;
23230;SDS011;11784;49.818;8.632;2022-11-09T08:04:34;0.55;;;0.40;;
23230;SDS011;11784;49.818;8.632;2022-11-09T08:07:00;0.28;;;0.20;;
23230;SDS011;11784;49.818;8.632;2022-11-09T08:09:25;0.68;;;0.30;;
23230;SDS011;11784;49.818;8.632;2022-11-09T08:11:52;0.80;;;0.30;;
23230;SDS011;11784;49.818;8.632;2022-11-09T08:14:18;0.85;;;0.40;;
23230;SDS011;11784;49.818;8.632;2022-11-09T08:16:43;1.10;;;0.20;;
23230;SDS011;11784;49.818;8.632;2022-11-09T08:19:09;0.20;;;0.20;;
23230;SDS011;11784;49.818;8.632;2022-11-09T08:21:35;0.60;;;0.40;;
23230;SDS011;11784;49.818;8.632;2022-11-09T08:24:01;1.50;;;0.65;;
23230;SDS011;11784;49.818;8.632;2022-11-09T08:26:27;0.40;;;0.40;;
23230;SDS011;11784;49.818;8.632;2022-11-09T08:28:53;0.20;;;0.20;;
23230;SDS011;11784;49.818;8.632;2022-11-09T08:31:19;0.68;;;0.60;;
23230;SDS011;11784;49.818;8.632;2022-11-09T08:33:45;0.88;;;0.30;;
23230;SDS011;11784;49.818;8.632;2022-11-09T08:36:11;0.57;;;0.35;;
23230;SDS011;11784;49.818;8.632;2022-11-09T08:38:38;0.68;;;0.60;;
23230;SDS011;11784;49.818;8.632;2022-11-09T08:41:04;3.00;;;0.50;;
23230;SDS011;11784;49.818;8.632;2022-11-09T08:43:30;0.63;;;0.40;;
23230;SDS011;11784;49.818;8.632;2022-11-09T08:45:56;0.40;;;0.40;;
23230;SDS011;11784;49.818;8.632;2022-11-09T08:48:21;0.25;;;0.25;;
23230;SDS011;11784;49.818;8.632;2022-11-09T08:50:50;1.08;;;0.63;;
23230;SDS011;11784;49.818;8.632;2022-11-09T08:53:17;2.03;;;0.30;;
23230;SDS011;11784;49.818;8.632;2022-11-09T08:55:42;0.30;;;0.20;;
23230;SDS011;11784;49.818;8.632;2022-11-09T08:58:08;1.65;;;0.30;;
23230;SDS011;11784;49.818;8.632;2022-11-09T09:00:34;0.38;;;0.28;;
23230;SDS011;11784;49.818;8.632;2022-11-09T09:03:03;1.20;;;0.40;;
23230;SDS011;11784;49.818;8.632;2022-11-09T09:05:29;0.60;;;0.30;;
23230;SDS011;11784;49.818;8.632;2022-11-09T09:07:57;3.00;;;0.68;;
23230;SDS011;11784;49.818;8.632;2022-11-09T09:10:23;0.20;;;0.20;;
23230;SDS011;11784;49.818;8.632;2022-11-09T09:12:50;0.50;;;0.50;;
23230;SDS011;11784;49.818;8.632;2022-11-09T09:15:16;0.20;;;0.20;;
23230;SDS011;11784;49.818;8.632;2022-11-09T09:17:41;1.73;;;0.95;;
23230;SDS011;11784;49.818;8.632;2022-11-09T09:20:07;1.05;;;0.30;;
23230;SDS011;11784;49.818;8.632;2022-11-09T09:22:34;2.30;;;0.43;;
23230;SDS011;11784;49.818;8.632;2022-11-09T09:24:59;0.35;;;0.30;;
23230;SDS011;11784;49.818;8.632;2022-11-09T09:27:25;0.98;;;0.75;;
23230;SDS011;11784;49.818;8.632;2022-11-09T09:29:51;1.13;;;0.65;;
23230;SDS011;11784;49.818;8.632;2022-11-09T09:32:16;4.75;;;0.40;;
23230;SDS011;11784;49.818;8.632;2022-11-09T09:34:42;0.68;;;0.55;;
23230;SDS011;11784;49.818;8.632;2022-11-09T09:37:07;0.50;;;0.28;;
23230;SDS011;11784;49.818;8.632;2022-11-09T09:39:33;0.20;;;0.20;;
23230;SDS011;11784;49.818;8.632;2022-11-09T09:41:59;0.35;;;0.22;;
23230;SDS011;11784;49.818;8.632;2022-11-09T09:44:29;0.60;;;0.20;;
23230;SDS011;11784;49.818;8.632;2022-11-09T09:47:09;0.35;;;0.30;;
23230;SDS011;11784;49.818;8.632;2022-11-09T09:49:42;1.65;;;0.20;;
23230;SDS011;11784;49.818;8.632;2022-11-09T09:54:42;0.52;;;0.40;;
23230;SDS011;11784;49.818;8.632;2022-11-09T09:57:17;0.40;;;0.30;;
23230;SDS011;11784;49.818;8.632;2022-11-09T09:59:52;0.63;;;0.47;;
23230;SDS011;11784;49.818;8.632;2022-11-09T10:02:25;0.82;;;0.75;;
23230;SDS011;11784;49.818;8.632;2022-11-09T10:04:56;2.63;;;0.50;;
23230;SDS011;11784;49.818;8.632;2022-11-09T10:10:30;0.30;;;0.30;;
23230;SDS011;11784;49.818;8.632;2022-11-09T10:13:11;1.00;;;0.60;;
23230;SDS011;11784;49.818;8.632;2022-11-09T10:16:13;0.52;;;0.30;;
23230;SDS011;11784;49.818;8.632;2022-11-09T10:21:52;1.00;;;0.55;;
23230;SDS011;11784;49.818;8.632;2022-11-09T10:27:33;0.60;;;0.40;;
23230;SDS011;11784;49.818;8.632;2022-11-09T10:30:02;0.30;;;0.30;;
23230;SDS011;11784;49.818;8.632;2022-11-09T10:32:36;0.45;;;0.20;;
23230;SDS011;11784;49.818;8.632;2022-11-09T10:35:05;0.68;;;0.30;;
23230;SDS011;11784;49.818;8.632;2022-11-09T10:37:38;0.77;;;0.30;;
23230;SDS011;11784;49.818;8.632;2022-11-09T10:45:39;1.42;;;0.50;;
23230;SDS011;11784;49.818;8.632;2022-11-09T10:48:06;0.95;;;0.30;;
23230;SDS011;11784;49.818;8.632;2022-11-09T10:50:39;1.05;;;0.45;;
23230;SDS011;11784;49.818;8.632;2022-11-09T10:53:23;1.02;;;0.30;;
23230;SDS011;11784;49.818;8.632;2022-11-09T10:56:14;0.90;;;0.32;;
23230;SDS011;11784;49.818;8.632;2022-11-09T10:58:45;0.22;;;0.22;;
23230;SDS011;11784;49.818;8.632;2022-11-09T11:01:14;0.32;;;0.22;;
23230;SDS011;11784;49.818;8.632;2022-11-09T11:03:43;0.63;;;0.50;;
23230;SDS011;11784;49.818;8.632;2022-11-09T11:06:30;0.30;;;0.30;;
23230;SDS011;11784;49.818;8.632;2022-11-09T11:11:34;0.70;;;0.45;;
23230;SDS011;11784;49.818;8.632;2022-11-09T11:16:35;1.27;;;0.40;;
23230;SDS011;11784;49.818;8.632;2022-11-09T11:19:02;0.50;;;0.40;;
23230;SDS011;11784;49.818;8.632;2022-11-09T11:21:29;0.63;;;0.40;;
23230;SDS011;11784;49.818;8.632;2022-11-09T11:24:02;0.95;;;0.40;;
23230;SDS011;11784;49.818;8.632;2022-11-09T11:26:48;1.35;;;0.38;;
23230;SDS011;11784;49.818;8.632;2022-11-09T11:31:43;0.20;;;0.20;;
23230;SDS011;11784;49.818;8.632;2022-11-09T11:34:12;0.30;;;0.22;;
23230;SDS011;11784;49.818;8.632;2022-11-09T11:42:10;0.32;;;0.30;;
23230;SDS011;11784;49.818;8.632;2022-11-09T11:51:12;0.30;;;0.30;;
23230;SDS011;11784;49.818;8.632;2022-11-09T11:54:13;2.08;;;0.60;;
23230;SDS011;11784;49.818;8.632;2022-11-09T11:56:47;1.30;;;0.30;;
23230;SDS011;11784;49.818;8.632;2022-11-09T12:04:52;1.17;;;0.23;;
23230;SDS011;11784;49.818;8.632;2022-11-09T12:07:49;0.43;;;0.35;;
23230;SDS011;11784;49.818;8.632;2022-11-09T12:10:38;1.20;;;0.28;;
23230;SDS011;11784;49.818;8.632;2022-11-09T12:16:12;0.98;;;0.50;;
23230;SDS011;11784;49.818;8.632;2022-11-09T12:27:03;0.40;;;0.30;;
23230;SDS011;11784;49.818;8.632;2022-11-09T12:37:49;1.10;;;0.40;;
23230;SDS011;11784;49.818;8.632;2022-11-09T12:40:55;2.40;;;0.40;;
23230;SDS011;11784;49.818;8.632;2022-11-09T12:46:13;2.97;;;0.60;;
23230;SDS011;11784;49.818;8.632;2022-11-09T12:48:41;0.45;;;0.40;;
23230;SDS011;11784;49.818;8.632;2022-11-09T12:51:08;0.90;;;0.60;;
23230;SDS011;11784;49.818;8.632;2022-11-09T12:53:34;0.32;;;0.28;;
23230;SDS011;11784;49.818;8.632;2022-11-09T12:58:30;4.00;;;0.75;;
23230;SDS011;11784;49.818;8.632;2022-11-09T13:00:58;1.05;;;0.50;;
23230;SDS011;11784;49.818;8.632;2022-11-09T13:03:33;0.70;;;0.47;;
23230;SDS011;11784;49.818;8.632;2022-11-09T13:06:46;1.05;;;0.57;;
23230;SDS011;11784;49.818;8.632;2022-11-09T13:09:04;0.80;;;0.70;;
23230;SDS011;11784;49.818;8.632;2022-11-09T13:11:40;3.00;;;0.68;;
23230;SDS011;11784;49.818;8.632;2022-11-09T13:16:57;1.08;;;0.50;;
23230;SDS011;11784;49.818;8.632;2022-11-09T13:21:59;0.55;;;0.40;;
23230;SDS011;11784;49.818;8.632;2022-11-09T13:26:55;0.88;;;0.40;;
23230;SDS011;11784;49.818;8.632;2022-11-09T13:29:28;1.30;;;0.50;;
23230;SDS011;11784;49.818;8.632;2022-11-09T13:34:37;0.98;;;0.40;;
23230;SDS011;11784;49.818;8.632;2022-11-09T13:40:00;0.20;;;0.20;;
23230;SDS011;11784;49.818;8.632;2022-11-09T13:42:52;4.30;;;1.00;;
23230;SDS011;11784;49.818;8.632;2022-11-09T13:45:36;0.32;;;0.32;;
23230;SDS011;11784;49.818;8.632;2022-11-09T13:48:04;0.68;;;0.65;;
23230;SDS011;11784;49.818;8.632;2022-11-09T13:50:31;0.82;;;0.50;;
23230;SDS011;11784;49.818;8.632;2022-11-09T13:52:59;0.50;;;0.30;;
23230;SDS011;11784;49.818;8.632;2022-11-09T14:00:58;0.32;;;0.28;;
23230;SDS011;11784;49.818;8.632;2022-11-09T14:03:24;0.73;;;0.50;;
23230;SDS011;11784;49.818;8.632;2022-11-09T14:05:56;0.77;;;0.30;;
23230;SDS011;11784;49.818;8.632;2022-11-09T14:08:24;0.50;;;0.40;;
23230;SDS011;11784;49.818;8.632;2022-11-09T14:11:02;1.30;;;0.50;;
23230;SDS011;11784;49.818;8.632;2022-11-09T14:13:40;0.80;;;0.50;;
23230;SDS011;11784;49.818;8.632;2022-11-09T14:16:32;1.23;;;0.50;;
23230;SDS011;11784;49.818;8.632;2022-11-09T14:19:19;0.60;;;0.50;;
23230;SDS011;11784;49.818;8.632;2022-11-09T14:21:53;0.85;;;0.35;;
23230;SDS011;11784;49.818;8.632;2022-11-09T14:24:26;1.70;;;0.40;;
23230;SDS011;11784;49.818;8.632;2022-11-09T14:32:24;0.70;;;0.70;;
23230;SDS011;11784;49.818;8.632;2022-11-09T14:37:50;1.42;;;0.45;;
23230;SDS011;11784;49.818;8.632;2022-11-09T14:42:47;0.90;;;0.47;;
23230;SDS011;11784;49.818;8.632;2022-11-09T14:45:17;1.05;;;0.40;;
23230;SDS011;11784;49.818;8.632;2022-11-09T14:47:44;0.30;;;0.30;;
23230;SDS011;11784;49.818;8.632;2022-11-09T14:50:19;0.75;;;0.32;;
23230;SDS011;11784;49.818;8.632;2022-11-09T14:52:47;1.35;;;0.45;;
23230;SDS011;11784;49.818;8.632;2022-11-09T14:55:15;0.65;;;0.30;;
23230;SDS011;11784;49.818;8.632;2022-11-09T14:57:43;0.40;;;0.30;;
23230;SDS011;11784;49.818;8.632;2022-11-09T15:02:53;1.45;;;0.50;;
23230;SDS011;11784;49.818;8.632;2022-11-09T15:05:38;2.58;;;0.50;;
23230;SDS011;11784;49.818;8.632;2022-11-09T15:08:06;3.72;;;1.10;;
23230;SDS011;11784;49.818;8.632;2022-11-09T15:10:50;0.50;;;0.50;;
23230;SDS011;11784;49.818;8.632;2022-11-09T15:13:17;4.78;;;0.75;;
23230;SDS011;11784;49.818;8.632;2022-11-09T15:15:52;1.13;;;0.50;;
23230;SDS011;11784;49.818;8.632;2022-11-09T15:18:28;4.30;;;0.55;;
23230;SDS011;11784;49.818;8.632;2022-11-09T15:21:12;0.30;;;0.30;;
23230;SDS011;11784;49.818;8.632;2022-11-09T15:23:44;5.53;;;0.70;;
23230;SDS011;11784;49.818;8.632;2022-11-09T15:29:02;2.17;;;0.57;;
23230;SDS011;11784;49.818;8.632;2022-11-09T15:34:26;3.53;;;1.10;;
23230;SDS011;11784;49.818;8.632;2022-11-09T15:36:55;1.13;;;0.50;;
23230;SDS011;11784;49.818;8.632;2022-11-09T15:39:22;3.70;;;0.93;;
23230;SDS011;11784;49.818;8.632;2022-11-09T15:41:48;0.88;;;0.60;;
23230;SDS011;11784;49.818;8.632;2022-11-09T15:44:14;2.22;;;0.88;;
23230;SDS011;11784;49.818;8.632;2022-11-09T15:46:47;0.45;;;0.38;;
23230;SDS011;11784;49.818;8.632;2022-11-09T15:49:20;2.67;;;0.70;;
23230;SDS011;11784;49.818;8.632;2022-11-09T15:51:48;1.35;;;0.40;;
23230;SDS011;11784;49.818;8.632;2022-11-09T15:54:14;2.65;;;0.63;;
23230;SDS011;11784;49.818;8.632;2022-11-09T15:56:40;7.20;;;1.30;;
23230;SDS011;11784;49.818;8.632;2022-11-09T15:59:07;1.88;;;0.57;;
23230;SDS011;11784;49.818;8.632;2022-11-09T16:01:38;0.70;;;0.60;;
23230;SDS011;11784;49.818;8.632;2022-11-09T16:04:04;2.00;;;0.98;;
23230;SDS011;11784;49.818;8.632;2022-11-09T16:06:30;1.67;;;1.25;;
23230;SDS011;11784;49.818;8.632;2022-11-09T16:08:56;2.90;;;1.00;;
23230;SDS011;11784;49.818;8.632;2022-11-09T16:11:21;2.88;;;1.52;;
23230;SDS011;11784;49.818;8.632;2022-11-09T16:13:47;6.40;;;0.77;;
23230;SDS011;11784;49.818;8.632;2022-11-09T16:16:13;1.73;;;1.00;;
23230;SDS011;11784;49.818;8.632;2022-11-09T16:18:42;6.90;;;0.88;;
23230;SDS011;11784;49.818;8.632;2022-11-09T16:21:11;7.03;;;0.98;;
23230;SDS011;11784;49.818;8.632;2022-11-09T16:23:38;0.50;;;0.35;;
23230;SDS011;11784;49.818;8.632;2022-11-09T16:26:08;0.65;;;0.63;;
23230;SDS011;11784;49.818;8.632;2022-11-09T16:28:35;1.02;;;0.50;;
23230;SDS011;11784;49.818;8.632;2022-11-09T16:31:04;1.52;;;0.80;;
23230;SDS011;11784;49.818;8.632;2022-11-09T16:33:31;1.33;;;0.80;;
23230;SDS011;11784;49.818;8.632;2022-11-09T16:35:58;2.97;;;1.05;;
23230;SDS011;11784;49.818;8.632;2022-11-09T16:38:29;5.07;;;1.02;;
23230;SDS011;11784;49.818;8.632;2022-11-09T16:41:00;2.63;;;1.08;;
23230;SDS011;11784;49.818;8.632;2022-11-09T16:43:28;3.03;;;0.40;;
23230;SDS011;11784;49.818;8.632;2022-11-09T16:45:55;2.70;;;0.60;;
23230;SDS011;11784;49.818;8.632;2022-11-09T16:48:21;2.10;;;1.02;;
23230;SDS011;11784;49.818;8.632;2022-11-09T16:50:47;0.95;;;0.70;;
23230;SDS011;11784;49.818;8.632;2022-11-09T16:53:13;0.77;;;0.55;;
23230;SDS011;11784;49.818;8.632;2022-11-09T16:55:39;2.13;;;0.50;;